sensor_id;sensor_type;location;lat;lon;timestamp;pressure;altitude;pressure_sealevel;temperature;humidity
60832;BME280;46665;51.558;-0.448;2023-11-19T00:02:09;158083.28;;;10.52;100.00
60832;BME280;46665;51.558;-0.448;2023-11-19T00:04:53;158106.63;;;10.61;100.00
60832;BME280;46665;51.558;-0.448;2023-11-19T00:07:38;158084.56;;;10.52;100.00
60832;BME280;46665;51.558;-0.448;2023-11-19T00:10:25;158048.28;;;10.38;100.00
60832;BME280;46665;51.558;-0.448;2023-11-19T00:13:09;158050.91;;;10.39;100.00
60832;BME280;46665;51.558;-0.448;2023-11-19T00:15:53;158050.91;;;10.39;100.00
60832;BME280;46665;51.558;-0.448;2023-11-19T00:18:37;158036.66;;;10.33;100.00
60832;BME280;46665;51.558;-0.448;2023-11-19T00:21:21;158040.53;;;10.35;100.00
60832;BME280;46665;51.558;-0.448;2023-11-19T00:24:06;158027.56;;;10.30;100.00
60832;BME280;46665;51.558;-0.448;2023-11-19T00:26:52;158025.00;;;10.29;100.00
60832;BME280;46665;51.558;-0.448;2023-11-19T00:29:36;158008.09;;;10.22;100.00
60832;BME280;46665;51.558;-0.448;2023-11-19T00:32:20;157996.44;;;10.17;100.00
60832;BME280;46665;51.558;-0.448;2023-11-19T00:35:08;157996.44;;;10.17;100.00
60832;BME280;46665;51.558;-0.448;2023-11-19T00:37:53;157995.16;;;10.17;100.00
60832;BME280;46665;51.558;-0.448;2023-11-19T00:40:38;158014.56;;;10.25;100.00
60832;BME280;46665;51.558;-0.448;2023-11-19T00:43:21;158012.00;;;10.24;100.00
60832;BME280;46665;51.558;-0.448;2023-11-19T00:46:07;158010.72;;;10.23;100.00
60832;BME280;46665;51.558;-0.448;2023-11-19T00:48:51;158013.28;;;10.24;100.00
60832;BME280;46665;51.558;-0.448;2023-11-19T00:51:35;158000.34;;;10.19;100.00
60832;BME280;46665;51.558;-0.448;2023-11-19T00:54:20;158008.09;;;10.22;100.00
60832;BME280;46665;51.558;-0.448;2023-11-19T00:57:04;158002.91;;;10.20;100.00
60832;BME280;46665;51.558;-0.448;2023-11-19T00:59:49;157988.66;;;10.14;100.00
60832;BME280;46665;51.558;-0.448;2023-11-19T01:02:33;157982.19;;;10.12;100.00
60832;BME280;46665;51.558;-0.448;2023-11-19T01:05:19;157982.19;;;10.12;100.00
60832;BME280;46665;51.558;-0.448;2023-11-19T01:08:06;157975.72;;;10.09;100.00
60832;BME280;46665;51.558;-0.448;2023-11-19T01:10:50;157992.56;;;10.16;100.00
60832;BME280;46665;51.558;-0.448;2023-11-19T01:13:34;157996.44;;;10.17;100.00
60832;BME280;46665;51.558;-0.448;2023-11-19T01:16:18;157980.91;;;10.11;100.00
60832;BME280;46665;51.558;-0.448;2023-11-19T01:19:03;157984.81;;;10.13;100.00
60832;BME280;46665;51.558;-0.448;2023-11-19T01:21:49;157966.66;;;10.06;100.00
60832;BME280;46665;51.558;-0.448;2023-11-19T01:24:33;157970.53;;;10.07;100.00
60832;BME280;46665;51.558;-0.448;2023-11-19T01:27:17;157969.25;;;10.07;100.00
60832;BME280;46665;51.558;-0.448;2023-11-19T01:30:02;157957.56;;;10.02;100.00
60832;BME280;46665;51.558;-0.448;2023-11-19T01:32:47;157970.53;;;10.07;100.00
60832;BME280;46665;51.558;-0.448;2023-11-19T01:35:31;157991.28;;;10.15;100.00
60832;BME280;46665;51.558;-0.448;2023-11-19T01:38:15;157988.66;;;10.14;100.00
60832;BME280;46665;51.558;-0.448;2023-11-19T01:40:59;157996.44;;;10.17;100.00
60832;BME280;46665;51.558;-0.448;2023-11-19T01:43:43;157979.63;;;10.11;100.00
60832;BME280;46665;51.558;-0.448;2023-11-19T01:46:31;157961.47;;;10.04;100.00
60832;BME280;46665;51.558;-0.448;2023-11-19T01:49:18;157962.75;;;10.04;100.00
60832;BME280;46665;51.558;-0.448;2023-11-19T01:52:03;157957.56;;;10.02;100.00
60832;BME280;46665;51.558;-0.448;2023-11-19T01:54:48;157948.53;;;9.98;100.00
60832;BME280;46665;51.558;-0.448;2023-11-19T01:57:33;157960.19;;;10.03;100.00
60832;BME280;46665;51.558;-0.448;2023-11-19T02:00:18;157964.06;;;10.05;100.00
60832;BME280;46665;51.558;-0.448;2023-11-19T02:03:03;157973.16;;;10.08;100.00
60832;BME280;46665;51.558;-0.448;2023-11-19T02:05:49;157974.44;;;10.09;100.00
60832;BME280;46665;51.558;-0.448;2023-11-19T02:08:34;157973.16;;;10.08;100.00
60832;BME280;46665;51.558;-0.448;2023-11-19T02:11:18;157975.72;;;10.09;100.00
60832;BME280;46665;51.558;-0.448;2023-11-19T02:14:02;157987.38;;;10.14;100.00
60832;BME280;46665;51.558;-0.448;2023-11-19T02:16:50;157980.91;;;10.11;100.00
60832;BME280;46665;51.558;-0.448;2023-11-19T02:19:34;157983.47;;;10.12;100.00
60832;BME280;46665;51.558;-0.448;2023-11-19T02:22:18;157991.28;;;10.15;100.00
60832;BME280;46665;51.558;-0.448;2023-11-19T02:25:06;157991.28;;;10.15;100.00
60832;BME280;46665;51.558;-0.448;2023-11-19T02:30:34;157983.47;;;10.12;100.00
60832;BME280;46665;51.558;-0.448;2023-11-19T02:33:18;157974.44;;;10.09;100.00
60832;BME280;46665;51.558;-0.448;2023-11-19T02:36:07;158012.00;;;10.24;100.00
60832;BME280;46665;51.558;-0.448;2023-11-19T02:38:51;157991.28;;;10.15;100.00
60832;BME280;46665;51.558;-0.448;2023-11-19T02:41:35;157996.44;;;10.17;100.00
60832;BME280;46665;51.558;-0.448;2023-11-19T02:44:19;158001.63;;;10.19;100.00
60832;BME280;46665;51.558;-0.448;2023-11-19T02:47:05;157982.19;;;10.12;100.00
60832;BME280;46665;51.558;-0.448;2023-11-19T02:49:51;157967.94;;;10.06;100.00
60832;BME280;46665;51.558;-0.448;2023-11-19T02:52:37;157960.19;;;10.03;100.00
60832;BME280;46665;51.558;-0.448;2023-11-19T02:55:22;157966.66;;;10.06;100.00
60832;BME280;46665;51.558;-0.448;2023-11-19T02:58:07;157966.66;;;10.06;100.00
60832;BME280;46665;51.558;-0.448;2023-11-19T03:01:04;157983.47;;;10.12;100.00
60832;BME280;46665;51.558;-0.448;2023-11-19T03:03:57;157969.25;;;10.07;100.00
60832;BME280;46665;51.558;-0.448;2023-11-19T03:06:41;157958.91;;;10.03;100.00
60832;BME280;46665;51.558;-0.448;2023-11-19T03:09:25;157955.00;;;10.01;100.00
60832;BME280;46665;51.558;-0.448;2023-11-19T03:12:10;157973.16;;;10.08;100.00
60832;BME280;46665;51.558;-0.448;2023-11-19T03:14:54;157967.94;;;10.06;100.00
60832;BME280;46665;51.558;-0.448;2023-11-19T03:17:39;157975.72;;;10.09;100.00
60832;BME280;46665;51.558;-0.448;2023-11-19T03:20:23;157973.16;;;10.08;100.00
60832;BME280;46665;51.558;-0.448;2023-11-19T03:23:11;157957.56;;;10.02;100.00
60832;BME280;46665;51.558;-0.448;2023-11-19T03:25:55;157962.75;;;10.04;100.00
60832;BME280;46665;51.558;-0.448;2023-11-19T03:28:41;157966.66;;;10.06;100.00
60832;BME280;46665;51.558;-0.448;2023-11-19T03:31:24;157995.16;;;10.17;100.00
60832;BME280;46665;51.558;-0.448;2023-11-19T03:34:09;158001.63;;;10.19;100.00
60832;BME280;46665;51.558;-0.448;2023-11-19T03:36:53;157997.75;;;10.18;100.00
60832;BME280;46665;51.558;-0.448;2023-11-19T03:39:37;157967.94;;;10.06;100.00
60832;BME280;46665;51.558;-0.448;2023-11-19T03:42:21;157978.34;;;10.10;100.00
60832;BME280;46665;51.558;-0.448;2023-11-19T03:45:06;157991.28;;;10.15;100.00
60832;BME280;46665;51.558;-0.448;2023-11-19T03:47:52;157995.16;;;10.17;100.00
60832;BME280;46665;51.558;-0.448;2023-11-19T03:50:36;157991.28;;;10.15;100.00
60832;BME280;46665;51.558;-0.448;2023-11-19T03:53:20;157995.16;;;10.17;100.00
60832;BME280;46665;51.558;-0.448;2023-11-19T03:56:04;157999.03;;;10.18;100.00
60832;BME280;46665;51.558;-0.448;2023-11-19T03:58:48;158000.34;;;10.19;100.00
60832;BME280;46665;51.558;-0.448;2023-11-19T04:01:32;157988.66;;;10.14;100.00
60832;BME280;46665;51.558;-0.448;2023-11-19T04:04:16;157969.25;;;10.07;100.00
60832;BME280;46665;51.558;-0.448;2023-11-19T04:07:01;157973.16;;;10.08;100.00
60832;BME280;46665;51.558;-0.448;2023-11-19T04:09:46;157964.06;;;10.05;100.00
60832;BME280;46665;51.558;-0.448;2023-11-19T04:12:30;157947.25;;;9.98;100.00
60832;BME280;46665;51.558;-0.448;2023-11-19T04:15:14;157940.78;;;9.95;100.00
60832;BME280;46665;51.558;-0.448;2023-11-19T04:17:58;157955.00;;;10.01;100.00
60832;BME280;46665;51.558;-0.448;2023-11-19T04:20:42;157961.47;;;10.04;100.00
60832;BME280;46665;51.558;-0.448;2023-11-19T04:23:26;157940.78;;;9.95;100.00
60832;BME280;46665;51.558;-0.448;2023-11-19T04:26:10;157953.72;;;10.01;100.00
60832;BME280;46665;51.558;-0.448;2023-11-19T04:28:54;157936.88;;;9.94;100.00
60832;BME280;46665;51.558;-0.448;2023-11-19T04:31:38;157944.63;;;9.97;100.00
60832;BME280;46665;51.558;-0.448;2023-11-19T04:34:23;157960.19;;;10.03;100.00
60832;BME280;46665;51.558;-0.448;2023-11-19T04:37:08;157965.38;;;10.05;100.00
60832;BME280;46665;51.558;-0.448;2023-11-19T04:39:53;157943.34;;;9.96;100.00
60832;BME280;46665;51.558;-0.448;2023-11-19T04:42:37;157945.91;;;9.97;100.00
60832;BME280;46665;51.558;-0.448;2023-11-19T04:45:21;157925.19;;;9.89;100.00
60832;BME280;46665;51.558;-0.448;2023-11-19T04:48:05;157932.97;;;9.92;100.00
60832;BME280;46665;51.558;-0.448;2023-11-19T04:50:49;157949.81;;;9.99;100.00
60832;BME280;46665;51.558;-0.448;2023-11-19T04:53:35;157958.91;;;10.03;100.00
60832;BME280;46665;51.558;-0.448;2023-11-19T04:56:18;157973.16;;;10.08;100.00
60832;BME280;46665;51.558;-0.448;2023-11-19T04:59:04;157993.84;;;10.16;100.00
60832;BME280;46665;51.558;-0.448;2023-11-19T05:01:52;157995.16;;;10.17;100.00
60832;BME280;46665;51.558;-0.448;2023-11-19T05:04:36;157993.84;;;10.16;100.00
60832;BME280;46665;51.558;-0.448;2023-11-19T05:07:23;157986.09;;;10.13;100.00
60832;BME280;46665;51.558;-0.448;2023-11-19T05:10:08;157969.25;;;10.07;100.00
60832;BME280;46665;51.558;-0.448;2023-11-19T05:12:52;157973.16;;;10.08;100.00
60832;BME280;46665;51.558;-0.448;2023-11-19T05:15:36;157975.72;;;10.09;100.00
60832;BME280;46665;51.558;-0.448;2023-11-19T05:18:20;157970.53;;;10.07;100.00
60832;BME280;46665;51.558;-0.448;2023-11-19T05:21:04;157952.38;;;10.00;100.00
60832;BME280;46665;51.558;-0.448;2023-11-19T05:23:48;157961.47;;;10.04;100.00
60832;BME280;46665;51.558;-0.448;2023-11-19T05:26:31;157980.91;;;10.11;100.00
60832;BME280;46665;51.558;-0.448;2023-11-19T05:29:15;158008.09;;;10.22;100.00
60832;BME280;46665;51.558;-0.448;2023-11-19T05:31:59;158018.47;;;10.26;100.00
60832;BME280;46665;51.558;-0.448;2023-11-19T05:34:43;158032.75;;;10.32;100.00
60832;BME280;46665;51.558;-0.448;2023-11-19T05:37:27;158034.03;;;10.32;100.00
60832;BME280;46665;51.558;-0.448;2023-11-19T05:40:11;158039.25;;;10.34;100.00
60832;BME280;46665;51.558;-0.448;2023-11-19T05:42:58;158040.53;;;10.35;100.00
60832;BME280;46665;51.558;-0.448;2023-11-19T05:45:43;158030.19;;;10.31;100.00
60832;BME280;46665;51.558;-0.448;2023-11-19T05:48:27;158043.16;;;10.36;100.00
60832;BME280;46665;51.558;-0.448;2023-11-19T05:51:11;158052.19;;;10.39;100.00
60832;BME280;46665;51.558;-0.448;2023-11-19T05:53:55;158078.09;;;10.50;100.00
60832;BME280;46665;51.558;-0.448;2023-11-19T05:56:40;158067.72;;;10.46;100.00
60832;BME280;46665;51.558;-0.448;2023-11-19T05:59:25;158065.16;;;10.45;100.00
60832;BME280;46665;51.558;-0.448;2023-11-19T06:02:09;158043.16;;;10.36;100.00
60832;BME280;46665;51.558;-0.448;2023-11-19T06:04:53;158058.66;;;10.42;100.00
60832;BME280;46665;51.558;-0.448;2023-11-19T06:07:37;158061.25;;;10.43;100.00
60832;BME280;46665;51.558;-0.448;2023-11-19T06:10:23;158040.53;;;10.35;100.00
60832;BME280;46665;51.558;-0.448;2023-11-19T06:13:13;158043.16;;;10.36;100.00
60832;BME280;46665;51.558;-0.448;2023-11-19T06:15:58;158058.66;;;10.42;100.00
60832;BME280;46665;51.558;-0.448;2023-11-19T06:18:42;158048.28;;;10.38;100.00
60832;BME280;46665;51.558;-0.448;2023-11-19T06:21:27;158028.84;;;10.30;100.00
60832;BME280;46665;51.558;-0.448;2023-11-19T06:24:11;158014.56;;;10.25;100.00
60832;BME280;46665;51.558;-0.448;2023-11-19T06:26:55;157997.75;;;10.18;100.00
60832;BME280;46665;51.558;-0.448;2023-11-19T06:29:40;157997.75;;;10.18;100.00
60832;BME280;46665;51.558;-0.448;2023-11-19T06:32:24;157996.44;;;10.17;100.00
60832;BME280;46665;51.558;-0.448;2023-11-19T06:35:08;157975.72;;;10.09;100.00
60832;BME280;46665;51.558;-0.448;2023-11-19T06:37:53;157975.72;;;10.09;100.00
60832;BME280;46665;51.558;-0.448;2023-11-19T06:40:37;157964.06;;;10.05;100.00
60832;BME280;46665;51.558;-0.448;2023-11-19T06:43:21;157965.38;;;10.05;100.00
60832;BME280;46665;51.558;-0.448;2023-11-19T06:46:05;157969.25;;;10.07;100.00
60832;BME280;46665;51.558;-0.448;2023-11-19T06:48:49;157949.81;;;9.99;100.00
60832;BME280;46665;51.558;-0.448;2023-11-19T06:51:34;157966.66;;;10.06;100.00
60832;BME280;46665;51.558;-0.448;2023-11-19T06:54:18;157947.25;;;9.98;100.00
60832;BME280;46665;51.558;-0.448;2023-11-19T06:57:02;157929.09;;;9.91;100.00
60832;BME280;46665;51.558;-0.448;2023-11-19T06:59:46;157923.91;;;9.89;100.00
60832;BME280;46665;51.558;-0.448;2023-11-19T07:02:31;157909.69;;;9.83;100.00
60832;BME280;46665;51.558;-0.448;2023-11-19T07:05:15;157912.25;;;9.84;100.00
60832;BME280;46665;51.558;-0.448;2023-11-19T07:07:59;157914.88;;;9.85;100.00
60832;BME280;46665;51.558;-0.448;2023-11-19T07:10:43;157909.69;;;9.83;100.00
60832;BME280;46665;51.558;-0.448;2023-11-19T07:13:27;157901.91;;;9.80;100.00
60832;BME280;46665;51.558;-0.448;2023-11-19T07:16:14;157903.19;;;9.81;100.00
60832;BME280;46665;51.558;-0.448;2023-11-19T07:18:58;157898.03;;;9.79;100.00
60832;BME280;46665;51.558;-0.448;2023-11-19T07:21:43;157908.41;;;9.83;100.00
60832;BME280;46665;51.558;-0.448;2023-11-19T07:24:27;157894.13;;;9.77;100.00
60832;BME280;46665;51.558;-0.448;2023-11-19T07:27:15;157882.50;;;9.72;100.00
60832;BME280;46665;51.558;-0.448;2023-11-19T07:29:59;157882.50;;;9.72;100.00
60832;BME280;46665;51.558;-0.448;2023-11-19T07:32:43;157882.50;;;9.72;100.00
60832;BME280;46665;51.558;-0.448;2023-11-19T07:35:27;157890.25;;;9.75;100.00
60832;BME280;46665;51.558;-0.448;2023-11-19T07:38:14;157891.53;;;9.76;100.00
60832;BME280;46665;51.558;-0.448;2023-11-19T07:40:58;157894.13;;;9.77;100.00
60832;BME280;46665;51.558;-0.448;2023-11-19T07:43:44;157904.50;;;9.81;100.00
60832;BME280;46665;51.558;-0.448;2023-11-19T07:46:30;157910.97;;;9.84;100.00
60832;BME280;46665;51.558;-0.448;2023-11-19T07:49:16;157907.06;;;9.82;100.00
60832;BME280;46665;51.558;-0.448;2023-11-19T07:51:59;157887.63;;;9.74;100.00
60832;BME280;46665;51.558;-0.448;2023-11-19T07:54:43;157905.78;;;9.82;100.00
60832;BME280;46665;51.558;-0.448;2023-11-19T07:57:27;157905.78;;;9.82;100.00
60832;BME280;46665;51.558;-0.448;2023-11-19T08:00:14;157918.72;;;9.87;100.00
60832;BME280;46665;51.558;-0.448;2023-11-19T08:02:59;157934.28;;;9.93;100.00
60832;BME280;46665;51.558;-0.448;2023-11-19T08:05:43;157934.28;;;9.93;100.00
60832;BME280;46665;51.558;-0.448;2023-11-19T08:08:27;157931.69;;;9.92;100.00
60832;BME280;46665;51.558;-0.448;2023-11-19T08:11:13;157926.47;;;9.90;100.00
60832;BME280;46665;51.558;-0.448;2023-11-19T08:13:57;157943.34;;;9.96;100.00
60832;BME280;46665;51.558;-0.448;2023-11-19T08:16:41;157935.56;;;9.93;100.00
60832;BME280;46665;51.558;-0.448;2023-11-19T08:19:25;157931.69;;;9.92;100.00
60832;BME280;46665;51.558;-0.448;2023-11-19T08:22:09;157936.88;;;9.94;100.00
60832;BME280;46665;51.558;-0.448;2023-11-19T08:24:53;157936.88;;;9.94;100.00
60832;BME280;46665;51.558;-0.448;2023-11-19T08:27:37;157970.53;;;10.07;100.00
60832;BME280;46665;51.558;-0.448;2023-11-19T08:30:21;157988.66;;;10.14;100.00
60832;BME280;46665;51.558;-0.448;2023-11-19T08:33:05;158026.28;;;10.29;100.00
60832;BME280;46665;51.558;-0.448;2023-11-19T08:35:50;158031.47;;;10.31;100.00
60832;BME280;46665;51.558;-0.448;2023-11-19T08:38:34;158045.72;;;10.37;100.00
60832;BME280;46665;51.558;-0.448;2023-11-19T08:41:18;158050.91;;;10.39;100.00
60832;BME280;46665;51.558;-0.448;2023-11-19T08:44:03;158071.63;;;10.47;100.00
60832;BME280;46665;51.558;-0.448;2023-11-19T08:46:48;158053.47;;;10.40;100.00
60832;BME280;46665;51.558;-0.448;2023-11-19T08:49:32;158054.75;;;10.40;100.00
60832;BME280;46665;51.558;-0.448;2023-11-19T08:52:16;158084.56;;;10.52;100.00
60832;BME280;46665;51.558;-0.448;2023-11-19T08:55:01;158084.56;;;10.52;100.00
60832;BME280;46665;51.558;-0.448;2023-11-19T08:57:46;158089.78;;;10.54;100.00
60832;BME280;46665;51.558;-0.448;2023-11-19T09:00:30;158126.06;;;10.69;100.00
60832;BME280;46665;51.558;-0.448;2023-11-19T09:03:16;158122.16;;;10.67;100.00
60832;BME280;46665;51.558;-0.448;2023-11-19T09:06:00;158129.91;;;10.70;100.00
60832;BME280;46665;51.558;-0.448;2023-11-19T09:08:44;158142.88;;;10.75;100.00
60832;BME280;46665;51.558;-0.448;2023-11-19T09:11:31;158155.84;;;10.80;100.00
60832;BME280;46665;51.558;-0.448;2023-11-19T09:14:15;158157.13;;;10.81;100.00
60832;BME280;46665;51.558;-0.448;2023-11-19T09:16:59;158166.22;;;10.84;100.00
60832;BME280;46665;51.558;-0.448;2023-11-19T09:19:44;158181.75;;;10.91;100.00
60832;BME280;46665;51.558;-0.448;2023-11-19T09:22:28;158198.63;;;10.97;100.00
60832;BME280;46665;51.558;-0.448;2023-11-19T09:25:12;158207.66;;;11.01;100.00
60832;BME280;46665;51.558;-0.448;2023-11-19T09:28:00;158233.56;;;11.11;100.00
60832;BME280;46665;51.558;-0.448;2023-11-19T09:30:44;158232.28;;;11.11;100.00
60832;BME280;46665;51.558;-0.448;2023-11-19T09:33:28;158215.47;;;11.04;100.00
60832;BME280;46665;51.558;-0.448;2023-11-19T09:36:12;158210.28;;;11.02;100.00
60832;BME280;46665;51.558;-0.448;2023-11-19T09:39:03;158205.09;;;11.00;100.00
60832;BME280;46665;51.558;-0.448;2023-11-19T09:41:49;158218.03;;;11.05;100.00
60832;BME280;46665;51.558;-0.448;2023-11-19T09:44:33;158216.75;;;11.04;100.00
60832;BME280;46665;51.558;-0.448;2023-11-19T09:47:19;158232.28;;;11.11;100.00
60832;BME280;46665;51.558;-0.448;2023-11-19T09:50:03;158237.50;;;11.13;100.00
60832;BME280;46665;51.558;-0.448;2023-11-19T09:52:48;158262.13;;;11.22;100.00
60832;BME280;46665;51.558;-0.448;2023-11-19T09:55:33;158284.13;;;11.31;100.00
60832;BME280;46665;51.558;-0.448;2023-11-19T09:58:17;158268.59;;;11.25;100.00
60832;BME280;46665;51.558;-0.448;2023-11-19T10:01:01;158285.41;;;11.32;100.00
60832;BME280;46665;51.558;-0.448;2023-11-19T10:03:53;158291.91;;;11.34;100.00
60832;BME280;46665;51.558;-0.448;2023-11-19T10:06:38;158285.41;;;11.32;100.00
60832;BME280;46665;51.558;-0.448;2023-11-19T10:09:22;158291.91;;;11.34;100.00
60832;BME280;46665;51.558;-0.448;2023-11-19T10:12:06;158288.03;;;11.33;100.00
60832;BME280;46665;51.558;-0.448;2023-11-19T10:14:50;158290.63;;;11.34;100.00
60832;BME280;46665;51.558;-0.448;2023-11-19T10:17:34;158302.28;;;11.38;100.00
60832;BME280;46665;51.558;-0.448;2023-11-19T10:20:18;158312.69;;;11.42;100.00
60832;BME280;46665;51.558;-0.448;2023-11-19T10:23:03;158328.22;;;11.48;100.00
60832;BME280;46665;51.558;-0.448;2023-11-19T10:25:47;158358.03;;;11.60;100.00
60832;BME280;46665;51.558;-0.448;2023-11-19T10:28:39;158363.25;;;11.62;100.00
60832;BME280;46665;51.558;-0.448;2023-11-19T10:31:26;158365.81;;;11.63;100.00
60832;BME280;46665;51.558;-0.448;2023-11-19T10:34:24;158382.69;;;11.70;100.00
60832;BME280;46665;51.558;-0.448;2023-11-19T10:37:27;158374.88;;;11.67;100.00
60832;BME280;46665;51.558;-0.448;2023-11-19T10:40:11;158381.34;;;11.69;100.00
60832;BME280;46665;51.558;-0.448;2023-11-19T10:43:02;158391.75;;;11.74;100.00
60832;BME280;46665;51.558;-0.448;2023-11-19T10:45:46;158390.47;;;11.73;100.00
60832;BME280;46665;51.558;-0.448;2023-11-19T10:48:30;158394.31;;;11.75;100.00
60832;BME280;46665;51.558;-0.448;2023-11-19T10:51:18;158391.75;;;11.74;100.00
60832;BME280;46665;51.558;-0.448;2023-11-19T10:54:07;158411.19;;;11.81;100.00
60832;BME280;46665;51.558;-0.448;2023-11-19T10:56:58;158441.06;;;11.93;100.00
60832;BME280;46665;51.558;-0.448;2023-11-19T10:59:43;158452.75;;;11.98;100.00
60832;BME280;46665;51.558;-0.448;2023-11-19T11:02:30;158437.16;;;11.91;100.00
60832;BME280;46665;51.558;-0.448;2023-11-19T11:05:18;158468.31;;;12.04;100.00
60832;BME280;46665;51.558;-0.448;2023-11-19T11:08:04;158461.81;;;12.01;100.00
60832;BME280;46665;51.558;-0.448;2023-11-19T11:10:56;158464.38;;;12.02;100.00
60832;BME280;46665;51.558;-0.448;2023-11-19T11:13:42;158448.84;;;11.96;100.00
60832;BME280;46665;51.558;-0.448;2023-11-19T11:16:27;158465.72;;;12.03;100.00
60832;BME280;46665;51.558;-0.448;2023-11-19T11:19:12;158443.66;;;11.94;100.00
60832;BME280;46665;51.558;-0.448;2023-11-19T11:21:57;158442.38;;;11.93;100.00
60832;BME280;46665;51.558;-0.448;2023-11-19T11:27:48;158465.72;;;12.03;100.00
60832;BME280;46665;51.558;-0.448;2023-11-19T11:36:27;158505.91;;;12.19;100.00
60832;BME280;46665;51.558;-0.448;2023-11-19T11:39:12;158512.41;;;12.21;100.00
60832;BME280;46665;51.558;-0.448;2023-11-19T11:45:07;158516.25;;;12.23;100.00
60832;BME280;46665;51.558;-0.448;2023-11-19T11:50:49;158525.38;;;12.26;100.00
60832;BME280;46665;51.558;-0.448;2023-11-19T11:53:34;158529.22;;;12.28;100.00
60832;BME280;46665;51.558;-0.448;2023-11-19T11:56:19;158509.78;;;12.20;100.00
60832;BME280;46665;51.558;-0.448;2023-11-19T11:59:03;158516.25;;;12.23;100.00
60832;BME280;46665;51.558;-0.448;2023-11-19T12:01:58;158540.91;;;12.32;100.00
60832;BME280;46665;51.558;-0.448;2023-11-19T12:04:46;158538.34;;;12.31;100.00
60832;BME280;46665;51.558;-0.448;2023-11-19T12:07:30;158556.50;;;12.39;100.00
60832;BME280;46665;51.558;-0.448;2023-11-19T12:10:14;158546.09;;;12.34;100.00
60832;BME280;46665;51.558;-0.448;2023-11-19T12:13:06;158555.16;;;12.38;100.00
60832;BME280;46665;51.558;-0.448;2023-11-19T12:18:41;158539.63;;;12.32;100.00
60832;BME280;46665;51.558;-0.448;2023-11-19T12:21:30;158531.84;;;12.29;100.00
60832;BME280;46665;51.558;-0.448;2023-11-19T12:24:15;158525.38;;;12.26;100.00
60832;BME280;46665;51.558;-0.448;2023-11-19T12:26:59;158525.38;;;12.26;100.00
60832;BME280;46665;51.558;-0.448;2023-11-19T12:29:43;158529.22;;;12.28;100.00
60832;BME280;46665;51.558;-0.448;2023-11-19T12:35:23;158544.81;;;12.34;100.00
60832;BME280;46665;51.558;-0.448;2023-11-19T12:38:08;158562.97;;;12.41;100.00
60832;BME280;46665;51.558;-0.448;2023-11-19T12:41:11;158551.31;;;12.36;100.00
60832;BME280;46665;51.558;-0.448;2023-11-19T12:44:10;158557.78;;;12.39;100.00
60832;BME280;46665;51.558;-0.448;2023-11-19T12:47:05;158582.44;;;12.49;100.00
60832;BME280;46665;51.558;-0.448;2023-11-19T12:49:56;158596.69;;;12.54;100.00
60832;BME280;46665;51.558;-0.448;2023-11-19T12:52:40;158586.31;;;12.50;100.00
60832;BME280;46665;51.558;-0.448;2023-11-19T12:55:25;158601.91;;;12.56;100.00
60832;BME280;46665;51.558;-0.448;2023-11-19T12:58:10;158620.06;;;12.64;100.00
60832;BME280;46665;51.558;-0.448;2023-11-19T13:01:01;158623.94;;;12.65;100.00
60832;BME280;46665;51.558;-0.448;2023-11-19T13:03:45;158617.44;;;12.63;100.00
60832;BME280;46665;51.558;-0.448;2023-11-19T13:06:29;158613.56;;;12.61;100.00
60832;BME280;46665;51.558;-0.448;2023-11-19T13:09:24;158621.34;;;12.64;100.00
60832;BME280;46665;51.558;-0.448;2023-11-19T13:12:15;158608.38;;;12.59;100.00
60832;BME280;46665;51.558;-0.448;2023-11-19T13:15:00;158597.97;;;12.55;100.00
60832;BME280;46665;51.558;-0.448;2023-11-19T13:17:47;158603.19;;;12.57;100.00
60832;BME280;46665;51.558;-0.448;2023-11-19T13:20:31;158604.47;;;12.57;100.00
60832;BME280;46665;51.558;-0.448;2023-11-19T13:23:15;158603.19;;;12.57;100.00
60832;BME280;46665;51.558;-0.448;2023-11-19T13:25:59;158600.59;;;12.56;100.00
60832;BME280;46665;51.558;-0.448;2023-11-19T13:28:43;158609.66;;;12.60;100.00
60832;BME280;46665;51.558;-0.448;2023-11-19T13:31:27;158601.91;;;12.56;100.00
60832;BME280;46665;51.558;-0.448;2023-11-19T13:34:12;158599.28;;;12.55;100.00
60832;BME280;46665;51.558;-0.448;2023-11-19T13:36:56;158599.28;;;12.55;100.00
60832;BME280;46665;51.558;-0.448;2023-11-19T13:39:43;158617.44;;;12.63;100.00
60832;BME280;46665;51.558;-0.448;2023-11-19T13:42:28;158607.09;;;12.58;100.00
60832;BME280;46665;51.558;-0.448;2023-11-19T13:45:13;158608.38;;;12.59;100.00
60832;BME280;46665;51.558;-0.448;2023-11-19T13:47:58;158605.75;;;12.58;100.00
60832;BME280;46665;51.558;-0.448;2023-11-19T13:50:42;158612.25;;;12.61;100.00
60832;BME280;46665;51.558;-0.448;2023-11-19T13:53:26;158600.59;;;12.56;100.00
60832;BME280;46665;51.558;-0.448;2023-11-19T13:56:10;158613.56;;;12.61;100.00
60832;BME280;46665;51.558;-0.448;2023-11-19T13:58:54;158618.72;;;12.63;100.00
60832;BME280;46665;51.558;-0.448;2023-11-19T14:01:38;158617.44;;;12.63;100.00
60832;BME280;46665;51.558;-0.448;2023-11-19T14:04:22;158605.75;;;12.58;100.00
60832;BME280;46665;51.558;-0.448;2023-11-19T14:07:06;158621.34;;;12.64;100.00
60832;BME280;46665;51.558;-0.448;2023-11-19T14:09:50;158627.84;;;12.67;100.00
60832;BME280;46665;51.558;-0.448;2023-11-19T14:12:34;158626.56;;;12.66;100.00
60832;BME280;46665;51.558;-0.448;2023-11-19T14:15:19;158642.09;;;12.72;100.00
60832;BME280;46665;51.558;-0.448;2023-11-19T14:18:03;158635.59;;;12.70;100.00
60832;BME280;46665;51.558;-0.448;2023-11-19T14:20:48;158633.03;;;12.69;100.00
60832;BME280;46665;51.558;-0.448;2023-11-19T14:23:32;158630.41;;;12.68;100.00
60832;BME280;46665;51.558;-0.448;2023-11-19T14:26:16;158618.72;;;12.63;100.00